createdAt,value
2022-09-22T00:00:18.164Z,9.70
2022-09-22T00:03:43.316Z,8.70
2022-09-22T00:06:48.298Z,9.10
2022-09-22T00:09:51.184Z,8.90
2022-09-22T00:12:55.185Z,8.80
2022-09-22T00:15:58.372Z,8.60
2022-09-22T00:19:01.389Z,8.80
2022-09-22T00:22:05.922Z,9.50
2022-09-22T00:25:09.526Z,9.40
2022-09-22T00:28:13.189Z,9.30
2022-09-22T00:31:20.674Z,9.70
2022-09-22T00:34:26.444Z,9.60
2022-09-22T00:37:32.340Z,9.60
2022-09-22T00:40:36.299Z,9.50
2022-09-22T00:43:39.511Z,9.60
2022-09-22T00:46:44.889Z,9.30
2022-09-22T00:49:57.200Z,10.80
2022-09-22T00:53:06.038Z,11.00
2022-09-22T00:56:14.848Z,11.30
2022-09-22T00:59:20.346Z,11.40
2022-09-22T01:02:24.241Z,11.20
2022-09-22T01:05:29.714Z,10.40
2022-09-22T01:08:34.331Z,10.90
2022-09-22T01:11:39.668Z,10.00
2022-09-22T01:15:03.889Z,10.20
2022-09-22T01:18:20.790Z,9.60
2022-09-22T01:21:47.863Z,9.40
2022-09-22T01:25:07.493Z,9.80
2022-09-22T01:28:47.613Z,8.80
2022-09-22T01:31:59.441Z,8.70
2022-09-22T01:35:24.386Z,8.70
2022-09-22T01:38:50.504Z,9.80
2022-09-22T01:42:04.217Z,9.60
2022-09-22T01:45:11.095Z,11.20
2022-09-22T01:48:25.872Z,11.70
2022-09-22T01:51:37.653Z,11.40
2022-09-22T01:54:45.860Z,12.00
2022-09-22T01:57:51.028Z,11.00
2022-09-22T02:01:00.561Z,11.50
2022-09-22T02:04:11.461Z,12.60
2022-09-22T02:07:31.119Z,10.30
2022-09-22T02:10:45.768Z,10.00
2022-09-22T02:13:48.790Z,9.90
2022-09-22T02:16:53.507Z,9.60
2022-09-22T02:19:56.411Z,9.60
2022-09-22T02:22:59.565Z,9.10
2022-09-22T02:26:04.452Z,9.40
2022-09-22T02:29:11.094Z,9.50
2022-09-22T02:32:17.521Z,9.60
2022-09-22T02:35:21.789Z,9.20
2022-09-22T02:38:34.579Z,9.50
2022-09-22T02:42:11.729Z,9.00
2022-09-22T02:45:17.265Z,8.70
2022-09-22T02:48:24.603Z,9.30
2022-09-22T02:51:29.615Z,10.70
2022-09-22T02:54:32.846Z,10.30
2022-09-22T02:57:36.231Z,10.50
2022-09-22T03:00:39.089Z,9.70
2022-09-22T03:03:42.311Z,9.30
2022-09-22T03:06:45.174Z,9.50
2022-09-22T03:09:48.098Z,9.40
2022-09-22T03:13:14.994Z,8.80
2022-09-22T03:16:14.019Z,9.10
2022-09-22T03:19:16.886Z,8.20
2022-09-22T03:22:19.766Z,8.70
2022-09-22T03:25:22.638Z,8.90
2022-09-22T03:28:25.530Z,9.60
2022-09-22T03:31:28.466Z,7.50
2022-09-22T03:34:31.362Z,8.90
2022-09-22T03:37:35.017Z,11.90
2022-09-22T03:40:38.015Z,10.70
2022-09-22T03:43:41.122Z,8.50
2022-09-22T03:46:44.036Z,9.70
2022-09-22T03:49:46.981Z,9.40
2022-09-22T03:52:49.916Z,10.50
2022-09-22T03:55:52.781Z,9.10
2022-09-22T03:58:55.645Z,8.10
2022-09-22T04:01:58.843Z,8.50
2022-09-22T04:05:01.837Z,9.50
2022-09-22T04:08:04.759Z,8.40
2022-09-22T04:11:08.173Z,8.70
2022-09-22T04:14:11.264Z,10.50
2022-09-22T04:17:14.478Z,9.10
2022-09-22T04:20:17.414Z,9.80
2022-09-22T04:23:20.273Z,8.80
2022-09-22T04:26:23.549Z,8.40
2022-09-22T04:29:26.475Z,8.70
2022-09-22T04:32:29.576Z,8.90
2022-09-22T04:35:33.254Z,8.90
2022-09-22T04:38:36.194Z,9.40
2022-09-22T04:41:39.087Z,13.00
2022-09-22T04:44:41.949Z,10.70
2022-09-22T04:47:49.942Z,10.40
2022-09-22T04:50:53.070Z,10.20
2022-09-22T04:53:55.947Z,10.50
2022-09-22T04:56:59.405Z,9.40
2022-09-22T05:00:02.752Z,10.20
2022-09-22T05:03:10.590Z,11.90
2022-09-22T05:06:13.704Z,11.90
2022-09-22T05:09:16.635Z,11.00
2022-09-22T05:12:20.492Z,11.90
2022-09-22T05:15:23.497Z,13.20
2022-09-22T05:18:26.366Z,12.30
2022-09-22T05:21:29.656Z,12.60
2022-09-22T05:24:32.629Z,11.70
2022-09-22T05:27:35.976Z,10.50
2022-09-22T05:30:38.959Z,10.40
2022-09-22T05:33:42.111Z,9.70
2022-09-22T05:36:45.051Z,10.90
2022-09-22T05:39:47.885Z,12.30
2022-09-22T05:42:52.372Z,10.50
2022-09-22T05:45:55.753Z,8.60
2022-09-22T05:48:59.226Z,9.60
2022-09-22T05:52:02.547Z,29.80
2022-09-22T05:55:06.770Z,26.10
2022-09-22T05:58:14.194Z,18.90
2022-09-22T06:01:17.549Z,28.80
2022-09-22T06:04:20.528Z,31.50
2022-09-22T06:07:26.422Z,18.50
2022-09-22T06:10:31.235Z,9.50
2022-09-22T06:13:34.265Z,8.80
2022-09-22T06:16:37.124Z,8.90
2022-09-22T06:19:41.141Z,7.50
2022-09-22T06:22:45.015Z,7.00
2022-09-22T06:25:48.152Z,10.90
2022-09-22T06:28:51.375Z,19.20
2022-09-22T06:31:54.329Z,23.70
2022-09-22T06:35:02.523Z,11.80
2022-09-22T06:38:07.232Z,8.40
2022-09-22T06:41:10.117Z,7.20
2022-09-22T06:44:14.398Z,7.20
2022-09-22T06:47:17.378Z,9.40
2022-09-22T06:50:20.237Z,11.10
2022-09-22T06:53:27.038Z,8.00
2022-09-22T06:56:37.084Z,8.30
2022-09-22T06:59:40.797Z,7.80
2022-09-22T07:02:43.791Z,7.50
2022-09-22T07:06:03.725Z,6.90
2022-09-22T07:09:07.544Z,7.30
2022-09-22T07:12:10.467Z,8.10
2022-09-22T07:15:13.571Z,8.00
2022-09-22T07:18:17.040Z,7.20
2022-09-22T07:21:24.072Z,6.30
2022-09-22T07:24:27.911Z,5.00
2022-09-22T07:27:30.701Z,5.00
2022-09-22T07:30:36.383Z,5.70
2022-09-22T07:33:41.852Z,5.10
2022-09-22T07:36:45.286Z,5.60
2022-09-22T07:39:48.402Z,5.20
2022-09-22T07:42:51.366Z,5.60
2022-09-22T07:45:57.275Z,5.10
2022-09-22T07:49:00.311Z,5.20
2022-09-22T07:52:03.730Z,5.00
2022-09-22T07:55:07.098Z,4.80
2022-09-22T07:58:13.970Z,4.60
2022-09-22T08:01:21.794Z,3.90
2022-09-22T08:04:26.857Z,4.40
2022-09-22T08:07:32.943Z,4.20
2022-09-22T08:10:36.183Z,4.90
2022-09-22T08:13:44.600Z,5.00
2022-09-22T08:16:49.436Z,4.60
2022-09-22T08:19:53.164Z,4.40
2022-09-22T08:23:03.192Z,3.60
2022-09-22T08:26:08.994Z,3.80
2022-09-22T08:29:12.209Z,4.60
2022-09-22T08:32:18.455Z,3.90
2022-09-22T08:35:21.687Z,3.70
2022-09-22T08:38:25.792Z,4.50
2022-09-22T08:41:38.343Z,6.80
2022-09-22T08:44:49.303Z,4.30
2022-09-22T08:48:20.984Z,3.90
2022-09-22T08:51:49.051Z,2.90
2022-09-22T08:54:52.231Z,5.50
2022-09-22T08:58:07.447Z,7.90
2022-09-22T09:01:23.761Z,5.60
2022-09-22T09:04:57.995Z,4.10
2022-09-22T09:08:21.729Z,2.30
2022-09-22T09:11:44.761Z,1.80
2022-09-22T09:15:05.644Z,2.20
2022-09-22T09:18:22.874Z,1.90
2022-09-22T09:21:26.887Z,2.50
2022-09-22T09:28:04.755Z,2.00
2022-09-22T09:31:30.421Z,2.00
2022-09-22T09:34:33.597Z,1.70
2022-09-22T09:46:39.945Z,1.70
2022-09-22T09:49:44.038Z,1.70
2022-09-22T09:52:47.520Z,1.20
2022-09-22T09:55:50.982Z,1.30
2022-09-22T09:59:19.395Z,1.90
2022-09-22T10:02:28.022Z,3.10
2022-09-22T10:05:33.582Z,2.00
2022-09-22T10:08:45.869Z,2.20
2022-09-22T10:11:58.280Z,1.80
2022-09-22T10:18:40.270Z,1.60
2022-09-22T10:21:43.628Z,1.40
2022-09-22T10:24:58.475Z,1.40
2022-09-22T10:28:10.007Z,2.10
2022-09-22T10:31:22.063Z,1.80
2022-09-22T10:34:37.678Z,2.00
2022-09-22T10:37:40.795Z,1.60
2022-09-22T10:40:48.482Z,1.50
2022-09-22T10:44:03.112Z,1.30
2022-09-22T10:48:08.743Z,1.30
2022-09-22T10:51:41.853Z,1.40
2022-09-22T10:55:08.812Z,1.50
2022-09-22T10:58:51.618Z,1.50
2022-09-22T11:02:32.080Z,3.40
2022-09-22T11:06:08.376Z,1.90
2022-09-22T11:09:53.775Z,2.00
2022-09-22T11:13:20.132Z,2.20
2022-09-22T11:16:44.850Z,2.10
2022-09-22T11:20:24.489Z,2.20
2022-09-22T11:23:46.281Z,2.10
2022-09-22T11:26:59.118Z,2.20
2022-09-22T11:33:36.746Z,2.50
2022-09-22T11:36:58.228Z,1.60
2022-09-22T11:40:34.149Z,1.40
2022-09-22T11:43:58.505Z,3.40
2022-09-22T11:47:15.310Z,2.10
2022-09-22T11:50:30.486Z,2.00
2022-09-22T11:53:39.066Z,2.20
2022-09-22T11:56:48.534Z,1.90
2022-09-22T11:59:58.546Z,1.70
2022-09-22T12:03:18.246Z,1.60
2022-09-22T12:06:30.730Z,2.10
2022-09-22T12:09:43.981Z,1.80
2022-09-22T12:12:48.745Z,1.60
2022-09-22T12:16:12.805Z,1.70
2022-09-22T12:20:12.705Z,1.50
2022-09-22T12:23:30.462Z,1.80
2022-09-22T12:26:37.038Z,1.60
2022-09-22T12:29:40.226Z,1.70
2022-09-22T12:32:51.027Z,1.70
2022-09-22T12:35:55.737Z,2.10
2022-09-22T12:39:11.971Z,1.90
2022-09-22T12:42:35.764Z,1.70
2022-09-22T12:45:42.648Z,1.50
2022-09-22T12:48:46.800Z,1.40
2022-09-22T12:51:52.169Z,1.50
2022-09-22T12:55:28.481Z,1.30
2022-09-22T12:58:31.371Z,1.40
2022-09-22T13:01:35.907Z,1.20
2022-09-22T13:04:40.858Z,1.60
2022-09-22T13:07:44.513Z,1.80
2022-09-22T13:10:56.274Z,1.60
2022-09-22T13:13:59.388Z,1.70
2022-09-22T13:17:37.334Z,1.10
2022-09-22T13:20:40.246Z,1.20
2022-09-22T13:23:52.758Z,1.20
2022-09-22T13:27:04.783Z,1.50
2022-09-22T13:30:15.546Z,1.20
2022-09-22T13:33:24.661Z,1.50
2022-09-22T13:36:28.881Z,1.30
2022-09-22T13:39:35.547Z,1.50
2022-09-22T13:42:43.431Z,1.40
2022-09-22T13:45:46.866Z,1.90
2022-09-22T13:48:52.245Z,2.00
2022-09-22T13:52:03.098Z,2.10
2022-09-22T13:55:15.005Z,4.10
2022-09-22T13:58:42.873Z,3.10
2022-09-22T14:01:49.139Z,2.10
2022-09-22T14:04:56.687Z,1.60
2022-09-22T14:08:20.303Z,1.20
2022-09-22T14:11:27.465Z,1.90
2022-09-22T14:14:30.984Z,1.80
2022-09-22T14:17:33.984Z,1.00
2022-09-22T14:20:41.835Z,1.10
2022-09-22T14:23:50.175Z,1.10
2022-09-22T14:26:58.954Z,1.20
2022-09-22T14:30:05.299Z,1.20
2022-09-22T14:33:18.340Z,1.30
2022-09-22T14:36:25.351Z,1.50
2022-09-22T14:39:34.192Z,2.30
2022-09-22T14:42:37.285Z,2.30
2022-09-22T14:45:57.113Z,1.50
2022-09-22T14:49:39.515Z,1.70
2022-09-22T14:52:52.526Z,1.90
2022-09-22T14:56:04.472Z,2.00
2022-09-22T14:59:27.517Z,2.40
2022-09-22T15:02:33.366Z,2.60
2022-09-22T15:05:37.580Z,2.70
2022-09-22T15:08:43.090Z,2.70
2022-09-22T15:12:00.394Z,3.00
2022-09-22T15:15:26.012Z,3.40
2022-09-22T15:18:31.095Z,3.20
2022-09-22T15:21:38.291Z,3.30
2022-09-22T15:24:41.158Z,3.50
2022-09-22T15:27:44.484Z,4.10
2022-09-22T15:30:48.799Z,5.70
2022-09-22T15:34:03.077Z,5.50
2022-09-22T15:37:06.103Z,4.60
2022-09-22T15:40:21.248Z,4.20
2022-09-22T15:43:31.347Z,4.70
2022-09-22T15:46:37.834Z,5.30
2022-09-22T15:49:44.109Z,5.70
2022-09-22T15:52:47.158Z,4.90
2022-09-22T15:55:54.529Z,4.90
2022-09-22T15:59:01.077Z,5.30
2022-09-22T16:02:22.189Z,5.00
2022-09-22T16:05:25.959Z,4.30
2022-09-22T16:08:42.350Z,4.20
2022-09-22T16:11:45.458Z,4.60
2022-09-22T16:14:49.943Z,4.40
2022-09-22T16:17:52.837Z,5.60
2022-09-22T16:21:20.053Z,6.00
2022-09-22T16:24:23.058Z,4.70
2022-09-22T16:27:29.530Z,6.40
2022-09-22T16:30:32.380Z,5.80
2022-09-22T16:33:35.569Z,6.70
2022-09-22T16:36:39.939Z,7.70
2022-09-22T16:39:42.862Z,7.90
2022-09-22T16:42:46.229Z,8.90
2022-09-22T16:46:07.419Z,9.10
2022-09-22T16:49:12.970Z,9.30
2022-09-22T16:52:15.804Z,8.80
2022-09-22T16:55:18.959Z,11.40
2022-09-22T16:58:21.991Z,11.30
2022-09-22T17:01:24.961Z,13.20
2022-09-22T17:04:28.436Z,12.50
2022-09-22T17:07:31.443Z,11.80
2022-09-22T17:10:35.815Z,13.10
2022-09-22T17:13:43.614Z,13.80
2022-09-22T17:16:52.131Z,14.30
2022-09-22T17:19:55.759Z,16.60
2022-09-22T17:22:58.738Z,17.40
2022-09-22T17:26:03.193Z,19.50
2022-09-22T17:29:06.745Z,18.50
2022-09-22T17:32:09.714Z,20.20
2022-09-22T17:35:12.660Z,16.30
2022-09-22T17:38:17.311Z,15.50
2022-09-22T17:41:26.609Z,18.60
2022-09-22T17:44:34.369Z,22.10
2022-09-22T17:47:56.084Z,24.80
2022-09-22T17:51:17.561Z,24.80
2022-09-22T17:54:55.236Z,29.30
2022-09-22T17:57:58.554Z,29.90
2022-09-22T18:01:01.746Z,29.20
2022-09-22T18:04:05.432Z,31.70
2022-09-22T18:07:15.608Z,34.30
2022-09-22T18:10:19.798Z,37.90
2022-09-22T18:13:22.833Z,39.90
2022-09-22T18:16:30.401Z,39.20
2022-09-22T18:19:35.152Z,41.20
2022-09-22T18:22:38.659Z,42.60
2022-09-22T18:25:41.771Z,41.20
2022-09-22T18:28:44.715Z,43.30
2022-09-22T18:31:53.160Z,43.20
2022-09-22T18:34:56.580Z,42.70
2022-09-22T18:37:59.918Z,42.90
2022-09-22T18:41:03.247Z,45.00
2022-09-22T18:44:06.555Z,45.00
2022-09-22T18:47:18.634Z,45.80
2022-09-22T18:50:21.685Z,57.70
2022-09-22T18:53:24.927Z,56.10
2022-09-22T18:56:27.959Z,63.10
2022-09-22T18:59:40.440Z,66.00
2022-09-22T19:05:46.437Z,55.10
2022-09-22T19:08:49.373Z,64.90
2022-09-22T19:11:54.349Z,59.90
2022-09-22T19:14:57.587Z,51.60
2022-09-22T19:18:00.488Z,49.70
2022-09-22T19:21:06.066Z,47.30
2022-09-22T19:24:09.747Z,49.60
2022-09-22T19:27:15.713Z,49.40
2022-09-22T19:30:22.822Z,46.30
2022-09-22T19:33:27.951Z,42.70
2022-09-22T19:36:31.563Z,38.40
2022-09-22T19:39:36.011Z,39.00
2022-09-22T19:42:40.454Z,37.10
2022-09-22T19:45:43.510Z,37.50
2022-09-22T19:48:46.646Z,37.20
2022-09-22T19:51:49.582Z,38.80
2022-09-22T19:54:52.703Z,40.90
2022-09-22T19:57:55.708Z,39.30
2022-09-22T20:00:58.591Z,40.30
2022-09-22T20:04:02.465Z,41.30
2022-09-22T20:07:08.491Z,40.10
2022-09-22T20:10:13.276Z,40.60
2022-09-22T20:13:34.871Z,41.60
2022-09-22T20:16:37.843Z,42.70
2022-09-22T20:19:42.147Z,42.90
2022-09-22T20:22:47.343Z,45.10
2022-09-22T20:25:51.345Z,45.30
2022-09-22T20:28:56.471Z,46.80
2022-09-22T20:32:00.150Z,49.80
2022-09-22T20:35:07.390Z,49.50
2022-09-22T20:38:11.778Z,56.10
2022-09-22T20:41:24.844Z,59.30
2022-09-22T20:44:28.626Z,58.90
2022-09-22T20:47:33.250Z,58.30
2022-09-22T20:50:36.435Z,51.60
2022-09-22T20:53:40.211Z,50.20
2022-09-22T20:56:44.201Z,50.10
2022-09-22T20:59:47.704Z,48.90
2022-09-22T21:02:51.255Z,37.90
2022-09-22T21:06:05.813Z,38.80
2022-09-22T21:09:28.746Z,40.40
2022-09-22T21:12:33.191Z,39.20
2022-09-22T21:15:38.948Z,38.70
2022-09-22T21:18:42.019Z,38.00
2022-09-22T21:21:45.253Z,36.70
2022-09-22T21:24:48.868Z,34.30
2022-09-22T21:27:51.702Z,33.50
2022-09-22T21:31:05.703Z,35.10
2022-09-22T21:34:09.682Z,34.40
2022-09-22T21:37:15.237Z,33.70
2022-09-22T21:40:25.445Z,33.50
2022-09-22T21:43:29.786Z,32.10
2022-09-22T21:46:44.400Z,31.60
2022-09-22T21:49:47.455Z,30.60
2022-09-22T21:52:50.340Z,31.40
2022-09-22T21:55:57.284Z,30.50
2022-09-22T21:59:00.566Z,30.40
2022-09-22T22:02:03.495Z,30.10
2022-09-22T22:05:06.581Z,28.50
2022-09-22T22:08:09.841Z,28.30
2022-09-22T22:11:14.424Z,26.70
2022-09-22T22:14:22.369Z,26.50
2022-09-22T22:17:25.281Z,25.30
2022-09-22T22:20:31.063Z,23.00
2022-09-22T22:23:37.263Z,23.00
2022-09-22T22:26:40.115Z,21.80
2022-09-22T22:29:42.973Z,21.40
2022-09-22T22:32:46.394Z,21.70
2022-09-22T22:35:54.036Z,19.90
2022-09-22T22:38:56.866Z,20.10
2022-09-22T22:41:59.761Z,19.30
2022-09-22T22:45:02.597Z,18.70
2022-09-22T22:48:06.340Z,17.50
2022-09-22T22:51:12.745Z,15.00
2022-09-22T22:54:15.681Z,15.30
2022-09-22T22:57:18.500Z,17.10
2022-09-22T23:00:22.242Z,17.90
2022-09-22T23:03:26.907Z,17.50
2022-09-22T23:06:43.191Z,17.90
2022-09-22T23:09:46.329Z,19.10
2022-09-22T23:12:49.478Z,21.50
2022-09-22T23:15:52.373Z,21.00
2022-09-22T23:18:58.350Z,20.60
2022-09-22T23:22:02.872Z,20.30
2022-09-22T23:25:06.014Z,20.40
2022-09-22T23:28:09.072Z,18.50
2022-09-22T23:31:15.069Z,17.40
2022-09-22T23:34:18.074Z,17.50
2022-09-22T23:37:22.519Z,15.20
2022-09-22T23:40:25.404Z,14.80
2022-09-22T23:43:30.054Z,13.80
2022-09-22T23:46:34.037Z,16.60
2022-09-22T23:49:36.914Z,16.30
2022-09-22T23:52:39.745Z,15.10
2022-09-22T23:55:43.143Z,16.60
2022-09-22T23:58:46.567Z,16.00
